createdAt,value
2022-10-20T00:02:30.554Z,7.32
2022-10-20T00:07:33.970Z,8.25
2022-10-20T00:12:37.776Z,8.55
2022-10-20T00:17:44.708Z,8.48
2022-10-20T00:22:48.173Z,7.63
2022-10-20T00:27:51.498Z,8.85
2022-10-20T00:32:56.148Z,8.82
2022-10-20T00:37:59.442Z,11.05
2022-10-20T00:43:02.758Z,12.00
2022-10-20T00:48:13.500Z,12.77
2022-10-20T00:53:17.710Z,21.30
2022-10-20T00:58:21.412Z,23.73
2022-10-20T01:03:31.470Z,24.10
2022-10-20T01:08:35.034Z,22.08
2022-10-20T01:13:46.371Z,21.70
2022-10-20T01:19:01.971Z,20.15
2022-10-20T01:24:23.794Z,16.75
2022-10-20T01:29:31.472Z,14.07
2022-10-20T01:34:43.247Z,13.25
2022-10-20T01:39:51.960Z,12.77
2022-10-20T01:45:00.413Z,10.65
2022-10-20T01:50:06.992Z,10.57
2022-10-20T01:55:15.011Z,10.35
2022-10-20T02:00:19.802Z,10.55
2022-10-20T02:05:43.892Z,9.88
2022-10-20T02:10:48.890Z,8.88
2022-10-20T02:15:56.611Z,10.55
2022-10-20T02:21:03.832Z,9.65
2022-10-20T02:26:08.784Z,9.75
2022-10-20T02:31:14.162Z,9.50
2022-10-20T02:36:20.004Z,8.80
2022-10-20T02:41:23.761Z,9.57
2022-10-20T02:46:28.408Z,8.98
2022-10-20T02:51:31.677Z,8.98
2022-10-20T02:56:34.966Z,9.57
2022-10-20T03:01:39.654Z,8.98
2022-10-20T03:06:43.124Z,10.27
2022-10-20T03:11:46.437Z,10.07
2022-10-20T03:16:51.086Z,9.75
2022-10-20T03:21:54.405Z,8.48
2022-10-20T03:26:57.691Z,8.65
2022-10-20T03:32:02.321Z,8.77
2022-10-20T03:37:06.302Z,8.55
2022-10-20T03:42:09.622Z,9.13
2022-10-20T03:47:14.632Z,8.75
2022-10-20T03:52:17.913Z,9.20
2022-10-20T03:57:21.705Z,9.10
2022-10-20T04:02:32.934Z,8.27
2022-10-20T04:07:36.424Z,9.88
2022-10-20T04:12:39.749Z,9.15
2022-10-20T04:17:44.421Z,9.07
2022-10-20T04:22:48.089Z,8.77
2022-10-20T04:27:51.467Z,9.60
2022-10-20T04:32:56.085Z,8.75
2022-10-20T04:37:59.631Z,9.65
2022-10-20T04:43:02.944Z,11.90
2022-10-20T04:48:08.455Z,13.75
2022-10-20T04:53:11.707Z,10.32
2022-10-20T04:58:14.986Z,10.27
2022-10-20T05:03:20.040Z,12.32
2022-10-20T05:08:23.330Z,11.63
2022-10-20T05:13:26.585Z,9.93
2022-10-20T05:18:31.812Z,9.35
2022-10-20T05:23:35.173Z,10.82
2022-10-20T05:28:38.688Z,10.18
2022-10-20T05:33:45.526Z,9.80
2022-10-20T05:38:49.152Z,9.13
2022-10-20T05:43:54.172Z,9.65
2022-10-20T05:49:01.233Z,9.65
2022-10-20T05:54:05.522Z,10.45
2022-10-20T05:59:12.291Z,10.38
2022-10-20T06:04:19.063Z,11.88
2022-10-20T06:09:22.884Z,10.70
2022-10-20T06:14:27.081Z,11.23
2022-10-20T06:19:32.058Z,10.73
2022-10-20T06:24:35.562Z,11.77
2022-10-20T06:29:38.813Z,13.20
2022-10-20T06:34:43.694Z,14.80
2022-10-20T06:39:47.404Z,13.07
2022-10-20T06:44:51.275Z,13.77
2022-10-20T06:49:55.909Z,13.43
2022-10-20T06:54:59.176Z,12.73
2022-10-20T07:00:02.971Z,12.07
2022-10-20T07:05:08.877Z,11.57
2022-10-20T07:10:12.172Z,12.40
2022-10-20T07:15:15.884Z,11.60
2022-10-20T07:20:20.454Z,11.35
2022-10-20T07:25:23.969Z,10.80
2022-10-20T07:30:27.367Z,12.43
2022-10-20T07:35:32.685Z,10.85
2022-10-20T07:40:36.053Z,11.05
2022-10-20T07:45:39.402Z,10.98
2022-10-20T07:50:44.335Z,11.45
2022-10-20T07:55:47.931Z,11.18
2022-10-20T08:00:51.165Z,11.68
2022-10-20T08:05:56.191Z,10.73
2022-10-20T08:11:00.712Z,9.40
2022-10-20T08:21:24.567Z,8.57
2022-10-20T08:26:27.984Z,8.20
2022-10-20T08:31:31.576Z,8.77
2022-10-20T08:36:37.507Z,8.40
2022-10-20T08:42:07.663Z,9.23
2022-10-20T08:47:26.660Z,9.77
2022-10-20T08:52:34.369Z,8.65
2022-10-20T08:57:44.269Z,7.72
2022-10-20T09:02:57.701Z,7.40
2022-10-20T09:08:03.912Z,6.97
2022-10-20T09:13:18.507Z,7.13
2022-10-20T09:18:23.788Z,6.15
2022-10-20T09:23:42.473Z,5.78
2022-10-20T09:29:12.143Z,7.78
2022-10-20T09:34:24.818Z,6.57
2022-10-20T09:39:31.754Z,5.22
2022-10-20T09:44:47.833Z,6.07
2022-10-20T09:50:00.922Z,4.90
2022-10-20T09:55:22.341Z,5.50
2022-10-20T10:00:36.748Z,4.43
2022-10-20T10:05:41.163Z,4.75
2022-10-20T10:10:57.941Z,5.80
2022-10-20T10:16:04.074Z,4.93
2022-10-20T10:21:09.744Z,4.35
2022-10-20T10:26:43.829Z,5.20
2022-10-20T10:31:52.186Z,4.47
2022-10-20T10:36:55.756Z,4.30
2022-10-20T10:42:13.495Z,3.25
2022-10-20T10:47:34.226Z,3.42
2022-10-20T10:52:51.789Z,4.15
2022-10-20T10:58:07.345Z,3.63
2022-10-20T11:03:28.389Z,4.00
2022-10-20T11:08:45.610Z,4.38
2022-10-20T11:13:57.724Z,3.00
2022-10-20T11:19:20.408Z,3.55
2022-10-20T11:24:35.227Z,3.45
2022-10-20T11:29:46.611Z,3.13
2022-10-20T11:35:00.028Z,3.00
2022-10-20T11:40:15.042Z,3.13
2022-10-20T11:45:33.431Z,2.78
2022-10-20T11:50:37.481Z,3.08
2022-10-20T11:55:52.894Z,3.05
2022-10-20T12:07:07.574Z,3.50
2022-10-20T12:12:16.127Z,3.42
2022-10-20T12:17:29.048Z,3.63
2022-10-20T12:22:41.088Z,4.40
2022-10-20T12:27:44.385Z,5.32
2022-10-20T12:33:11.764Z,4.47
2022-10-20T12:38:19.342Z,4.22
2022-10-20T12:43:35.045Z,4.78
2022-10-20T12:48:45.799Z,3.97
2022-10-20T12:53:56.226Z,4.53
2022-10-20T12:59:24.352Z,3.80
2022-10-20T13:04:58.009Z,4.53
2022-10-20T13:10:03.535Z,5.03
2022-10-20T13:15:14.022Z,4.25
2022-10-20T13:20:26.690Z,5.15
2022-10-20T13:25:39.944Z,5.60
2022-10-20T13:31:00.441Z,4.43
2022-10-20T13:36:10.050Z,4.72
2022-10-20T13:41:21.108Z,4.18
2022-10-20T13:46:40.551Z,5.35
2022-10-20T13:51:48.643Z,4.82
2022-10-20T13:56:52.849Z,4.90
2022-10-20T14:01:58.350Z,4.00
2022-10-20T14:07:05.841Z,6.47
2022-10-20T14:12:13.880Z,4.10
2022-10-20T14:17:20.807Z,4.10
2022-10-20T14:22:26.437Z,4.80
2022-10-20T14:27:31.831Z,4.60
2022-10-20T14:32:40.260Z,4.85
2022-10-20T14:37:51.779Z,5.35
2022-10-20T14:43:00.518Z,4.68
2022-10-20T14:48:04.009Z,5.30
2022-10-20T14:53:32.933Z,5.80
2022-10-20T14:58:39.908Z,5.22
2022-10-20T15:03:44.696Z,5.00
2022-10-20T15:08:57.871Z,5.15
2022-10-20T15:19:28.224Z,4.85
2022-10-20T15:24:33.566Z,6.97
2022-10-20T15:29:37.194Z,6.43
2022-10-20T15:34:41.027Z,8.77
2022-10-20T15:39:46.312Z,10.32
2022-10-20T15:44:50.071Z,9.20
2022-10-20T15:49:53.710Z,7.60
2022-10-20T15:54:59.329Z,6.50
2022-10-20T16:00:03.105Z,6.45
2022-10-20T16:05:07.331Z,6.65
2022-10-20T16:10:13.896Z,5.32
2022-10-20T16:15:17.912Z,7.35
2022-10-20T16:20:21.446Z,6.15
2022-10-20T16:25:26.326Z,5.63
2022-10-20T16:30:29.899Z,6.25
2022-10-20T16:35:33.441Z,6.07
2022-10-20T16:40:39.110Z,6.78
2022-10-20T16:45:42.757Z,9.27
2022-10-20T16:50:46.336Z,10.02
2022-10-20T16:55:55.748Z,8.63
2022-10-20T17:01:01.334Z,7.72
2022-10-20T17:06:07.094Z,8.25
2022-10-20T17:11:14.712Z,9.73
2022-10-20T17:16:21.500Z,9.57
2022-10-20T17:21:28.075Z,9.35
2022-10-20T17:26:34.114Z,9.07
2022-10-20T17:31:38.155Z,9.02
2022-10-20T17:36:42.037Z,9.20
2022-10-20T17:41:48.135Z,8.55
2022-10-20T17:46:51.775Z,8.00
2022-10-20T17:51:55.305Z,7.50
2022-10-20T17:57:00.253Z,6.70
2022-10-20T18:02:04.008Z,6.78
2022-10-20T18:07:07.588Z,7.10
2022-10-20T18:12:14.399Z,8.30
2022-10-20T18:17:17.975Z,9.43
2022-10-20T18:22:21.658Z,9.25
2022-10-20T18:27:26.823Z,11.30
2022-10-20T18:32:30.936Z,12.38
2022-10-20T18:37:35.130Z,11.25
2022-10-20T18:42:41.340Z,10.75
2022-10-20T18:47:46.134Z,9.65
2022-10-20T18:52:49.996Z,10.55
2022-10-20T18:57:55.090Z,10.32
2022-10-20T19:03:00.904Z,10.13
2022-10-20T19:08:06.600Z,9.77
2022-10-20T19:13:11.531Z,10.50
2022-10-20T19:18:15.498Z,9.50
2022-10-20T19:23:25.757Z,10.30
2022-10-20T19:28:32.115Z,10.23
2022-10-20T19:33:35.758Z,12.60
2022-10-20T19:38:39.309Z,10.85
2022-10-20T19:43:44.408Z,12.05
2022-10-20T19:48:49.083Z,13.00
2022-10-20T19:53:52.659Z,11.93
2022-10-20T19:58:57.895Z,11.57
2022-10-20T20:04:01.779Z,11.05
2022-10-20T20:09:07.898Z,10.18
2022-10-20T20:14:15.945Z,12.10
2022-10-20T20:19:19.543Z,14.27
2022-10-20T20:24:23.376Z,16.42
2022-10-20T20:29:28.520Z,16.90
2022-10-20T20:34:32.289Z,16.95
2022-10-20T20:39:35.867Z,14.25
2022-10-20T20:44:40.873Z,14.70
2022-10-20T20:49:44.532Z,14.40
2022-10-20T20:54:48.386Z,14.02
2022-10-20T21:00:02.273Z,13.70
2022-10-20T21:05:07.250Z,14.18
2022-10-20T21:10:11.155Z,13.88
2022-10-20T21:15:16.689Z,13.68
2022-10-20T21:20:20.554Z,12.38
2022-10-20T21:25:24.410Z,12.90
2022-10-20T21:30:29.345Z,12.00
2022-10-20T21:35:33.211Z,12.77
2022-10-20T21:40:36.750Z,10.85
2022-10-20T21:45:42.038Z,10.80
2022-10-20T21:50:45.953Z,11.68
2022-10-20T21:55:49.565Z,11.68
2022-10-20T22:00:56.130Z,11.07
2022-10-20T22:05:59.948Z,12.48
2022-10-20T22:11:05.433Z,12.20
2022-10-20T22:16:13.344Z,12.85
2022-10-20T22:21:19.111Z,11.52
2022-10-20T22:26:23.702Z,10.80
2022-10-20T22:31:29.322Z,10.80
2022-10-20T22:36:32.971Z,10.82
2022-10-20T22:41:36.924Z,10.60
2022-10-20T22:46:41.862Z,11.05
2022-10-20T22:51:45.413Z,11.65
2022-10-20T22:56:52.015Z,9.90
2022-10-20T23:01:56.764Z,11.82
2022-10-20T23:12:09.027Z,11.32
2022-10-20T23:17:14.330Z,11.05
2022-10-20T23:22:17.740Z,11.50
2022-10-20T23:27:21.137Z,12.38
2022-10-20T23:32:25.866Z,11.55
2022-10-20T23:37:29.170Z,13.88
2022-10-20T23:42:32.714Z,12.70
2022-10-20T23:47:37.662Z,12.48
2022-10-20T23:52:41.263Z,11.93
2022-10-20T23:57:44.538Z,13.48
